createdAt,value
2022-11-25T00:00:37.078Z,25.88
2022-11-25T00:05:37.078Z,24.75
2022-11-25T00:10:37.114Z,25.43
2022-11-25T00:15:37.084Z,26.11
2022-11-25T00:20:37.090Z,25.85
2022-11-25T00:25:37.087Z,23.49
2022-11-25T00:30:37.106Z,23.58
2022-11-25T00:35:37.128Z,22.86
2022-11-25T00:40:37.094Z,21.6
2022-11-25T00:45:37.112Z,21.68
2022-11-25T00:50:37.130Z,21.51
2022-11-25T00:55:37.158Z,20.87
2022-11-25T01:00:37.133Z,20.64
2022-11-25T01:05:37.118Z,21.04
2022-11-25T01:10:37.133Z,20.39
2022-11-25T01:15:37.134Z,19.27
2022-11-25T01:20:37.103Z,19.64
2022-11-25T01:25:37.137Z,19.66
2022-11-25T01:30:41.128Z,18.68
2022-11-25T01:35:37.108Z,19.23
2022-11-25T01:40:37.135Z,18.36
2022-11-25T01:45:37.168Z,18.18
2022-11-25T01:50:37.121Z,18.69
2022-11-25T01:55:37.127Z,18.69
2022-11-25T02:00:37.148Z,18.37
2022-11-25T02:05:37.122Z,17.26
2022-11-25T02:10:37.149Z,17.69
2022-11-25T02:15:37.151Z,17.74
2022-11-25T02:20:37.155Z,16.49
2022-11-25T02:25:37.122Z,16.28
2022-11-25T02:30:37.125Z,16.67
2022-11-25T02:35:37.161Z,15.57
2022-11-25T02:40:37.163Z,15.73
2022-11-25T02:45:37.263Z,14.6
2022-11-25T02:50:37.135Z,14.12
2022-11-25T02:55:37.160Z,13.66
2022-11-25T03:00:37.170Z,13.58
2022-11-25T03:05:37.131Z,14.37
2022-11-25T03:10:37.174Z,14.96
2022-11-25T03:15:37.177Z,14.91
2022-11-25T03:20:37.141Z,13.36
2022-11-25T03:25:37.142Z,12.75
2022-11-25T03:30:37.145Z,12.57
2022-11-25T03:35:37.149Z,12.99
2022-11-25T03:40:37.181Z,12.64
2022-11-25T03:45:37.172Z,13.36
2022-11-25T03:50:37.181Z,13.05
2022-11-25T03:55:37.184Z,13.32
2022-11-25T04:00:37.183Z,12.48
2022-11-25T04:05:37.193Z,11.65
2022-11-25T04:10:37.164Z,11.17
2022-11-25T04:15:37.159Z,11.53
2022-11-25T04:20:37.192Z,11.7
2022-11-25T04:25:37.157Z,11.82
2022-11-25T04:30:37.255Z,11.74
2022-11-25T04:35:37.199Z,13.35
2022-11-25T04:40:37.164Z,13.02
2022-11-25T04:45:58.913Z,11.82
2022-11-25T04:50:37.165Z,11.56
2022-11-25T04:55:37.175Z,11.59
2022-11-25T05:00:37.179Z,11.3
2022-11-25T05:05:37.205Z,10.98
2022-11-25T05:10:37.172Z,10.95
2022-11-25T05:15:37.211Z,11.18
2022-11-25T05:20:37.205Z,11.38
2022-11-25T05:25:37.184Z,11.13
2022-11-25T05:30:37.199Z,11.12
2022-11-25T05:35:37.190Z,11.28
2022-11-25T05:40:37.220Z,11.54
2022-11-25T05:45:37.250Z,12.95
2022-11-25T05:50:37.227Z,13.93
2022-11-25T05:55:37.194Z,12.73
2022-11-25T06:00:37.226Z,12.22
2022-11-25T06:05:37.197Z,11.39
2022-11-25T06:10:37.226Z,11.5
2022-11-25T06:15:37.229Z,11.71
2022-11-25T06:20:37.211Z,12.18
2022-11-25T06:25:37.198Z,12.63
2022-11-25T06:30:37.242Z,11.76
2022-11-25T06:35:37.217Z,12.32
2022-11-25T06:40:37.208Z,12.48
2022-11-25T06:45:37.239Z,11.91
2022-11-25T06:50:37.239Z,11.02
2022-11-25T06:55:37.210Z,11.17
2022-11-25T07:00:37.249Z,12.37
2022-11-25T07:05:37.216Z,12.04
2022-11-25T07:10:37.252Z,13.5
2022-11-25T07:15:37.241Z,12.56
2022-11-25T07:20:37.260Z,12.11
2022-11-25T07:25:37.233Z,12.76
2022-11-25T07:35:37.227Z,13.78
2022-11-25T07:40:37.233Z,17.44
2022-11-25T07:45:37.273Z,18.24
2022-11-25T07:50:37.232Z,16.3
2022-11-25T07:55:37.266Z,15.65
2022-11-25T08:00:37.254Z,13.65
2022-11-25T08:05:37.301Z,15.66
2022-11-25T08:10:37.241Z,14.6
2022-11-25T08:15:37.312Z,15.33
2022-11-25T08:20:37.235Z,17.06
2022-11-25T08:25:37.269Z,15.68
2022-11-25T08:30:37.281Z,16.59
2022-11-25T08:35:37.279Z,14.56
2022-11-25T08:40:37.261Z,14.73
2022-11-25T08:45:37.244Z,14.55
2022-11-25T08:50:37.274Z,14.06
2022-11-25T08:55:37.254Z,13.56
2022-11-25T09:00:37.287Z,18.4
2022-11-25T09:05:37.259Z,20.63
2022-11-25T09:10:37.260Z,24.1
2022-11-25T09:15:37.444Z,31.37
2022-11-25T09:20:37.260Z,29.69
2022-11-25T09:25:37.308Z,27.03
2022-11-25T09:30:37.271Z,28.39
2022-11-25T09:35:37.274Z,26.37
2022-11-25T09:40:37.268Z,25.8
2022-11-25T09:45:37.294Z,26.31
2022-11-25T09:50:37.308Z,27.38
2022-11-25T09:55:37.271Z,28.91
2022-11-25T10:00:37.283Z,31.75
2022-11-25T10:05:37.322Z,31.71
2022-11-25T10:10:37.317Z,29.89
2022-11-25T10:15:37.283Z,30.51
2022-11-25T10:20:37.288Z,36.04
2022-11-25T10:25:37.291Z,39.04
2022-11-25T10:30:37.291Z,31.29
2022-11-25T10:35:37.331Z,34.09
2022-11-25T10:40:37.328Z,36.62
2022-11-25T10:45:37.303Z,30.01
2022-11-25T10:50:37.295Z,31.7
2022-11-25T10:55:37.327Z,29.92
2022-11-25T11:00:37.331Z,31.69
2022-11-25T11:05:37.350Z,29.82
2022-11-25T11:10:37.332Z,27.52
2022-11-25T11:15:37.307Z,28.96
2022-11-25T11:20:37.307Z,26.11
2022-11-25T11:25:37.335Z,28.22
2022-11-25T11:30:37.311Z,29.11
2022-11-25T11:35:41.628Z,28.43
2022-11-25T11:40:37.348Z,29.57
2022-11-25T11:45:37.316Z,32.85
2022-11-25T11:50:37.353Z,32.2
2022-11-25T11:55:37.357Z,33.72
2022-11-25T12:00:37.374Z,32.37
2022-11-25T12:05:37.370Z,32.85
2022-11-25T12:10:37.361Z,34.23
2022-11-25T12:15:37.387Z,35.91
2022-11-25T12:20:37.327Z,38.79
2022-11-25T12:25:37.340Z,38.07
2022-11-25T12:30:37.363Z,46.33
2022-11-25T12:35:37.366Z,38.47
2022-11-25T12:40:37.338Z,45.96
2022-11-25T12:45:37.380Z,49.71
2022-11-25T12:50:37.369Z,59.14
2022-11-25T12:55:37.340Z,56.1
2022-11-25T13:00:42.162Z,88.46
2022-11-25T13:05:40.346Z,75.78
2022-11-25T13:10:37.366Z,62.24
2022-11-25T13:15:37.828Z,52.66
2022-11-25T13:20:37.343Z,42.25
2022-11-25T13:25:37.362Z,43.56
2022-11-25T13:30:37.371Z,38.04
2022-11-25T13:35:37.380Z,36.95
2022-11-25T13:40:37.362Z,34.07
2022-11-25T13:45:37.442Z,32.89
2022-11-25T13:51:03.273Z,35.8
2022-11-25T13:55:37.364Z,33.34
2022-11-25T14:00:37.370Z,33.13
2022-11-25T14:05:37.381Z,33.89
2022-11-25T14:10:37.381Z,33.78
2022-11-25T14:15:37.367Z,34.56
2022-11-25T14:20:37.404Z,33.61
2022-11-25T14:25:37.428Z,31.9
2022-11-25T14:30:37.406Z,29.71
2022-11-25T14:35:40.150Z,29.93
2022-11-25T14:40:37.384Z,27.84
2022-11-25T14:45:37.405Z,26.93
2022-11-25T14:50:38.057Z,29.25
2022-11-25T14:55:37.386Z,30.93
2022-11-25T15:00:37.377Z,31.87
2022-11-25T15:05:37.416Z,31.09
2022-11-25T15:10:37.379Z,29.03
2022-11-25T15:15:37.420Z,29.24
2022-11-25T15:20:37.395Z,29.12
2022-11-25T15:25:37.430Z,31.06
2022-11-25T15:30:37.439Z,28.97
2022-11-25T15:35:37.387Z,27.42
2022-11-25T15:40:37.405Z,26.38
2022-11-25T15:45:37.422Z,36.42
2022-11-25T15:50:37.441Z,36.15
2022-11-25T15:55:37.410Z,29.64
2022-11-25T15:57:05.537Z,26.61
2022-11-25T16:02:05.556Z,25.95
2022-11-25T16:07:05.493Z,24.32
2022-11-25T16:12:05.519Z,24.25
2022-11-25T16:17:05.664Z,24
2022-11-25T16:22:05.523Z,22.94
2022-11-25T16:27:05.582Z,24.29
2022-11-25T16:32:05.514Z,27.52
2022-11-25T16:37:05.504Z,25.48
2022-11-25T16:42:05.549Z,25.36
2022-11-25T16:47:05.505Z,29.08
2022-11-25T16:52:05.517Z,31.18
2022-11-25T16:57:05.502Z,27.44
2022-11-25T17:02:05.699Z,25.36
2022-11-25T17:07:31.462Z,27.43
2022-11-25T17:17:05.604Z,31.02
2022-11-25T17:22:05.520Z,29.58
2022-11-25T17:27:05.524Z,25.07
2022-11-25T17:32:05.570Z,23.47
2022-11-25T17:37:05.529Z,22.84
2022-11-25T17:42:05.539Z,23.95
2022-11-25T17:47:05.533Z,23.28
2022-11-25T17:52:05.561Z,22.06
2022-11-25T17:57:05.564Z,21.15
2022-11-25T18:02:05.592Z,19.34
2022-11-25T18:07:05.559Z,17.79
2022-11-25T18:12:05.569Z,18.26
2022-11-25T18:17:05.641Z,26.54
2022-11-25T18:22:05.525Z,31.29
2022-11-25T18:27:05.540Z,23.69
2022-11-25T18:32:05.634Z,18.76
2022-11-25T18:37:05.579Z,20.18
2022-11-25T18:42:05.546Z,16.72
2022-11-25T18:47:05.541Z,16.42
2022-11-25T18:52:05.561Z,18.13
2022-11-25T18:57:05.553Z,32.08
2022-11-25T19:02:05.667Z,29.68
2022-11-25T19:07:05.556Z,36.42
2022-11-25T19:12:05.557Z,46.98
2022-11-25T19:17:05.725Z,40.01
2022-11-25T19:22:05.554Z,52.24
2022-11-25T19:27:05.562Z,44.01
2022-11-25T19:32:05.595Z,38.74
2022-11-25T19:37:05.570Z,38.3
2022-11-25T19:42:05.577Z,40.42
2022-11-25T19:47:15.047Z,48.45
2022-11-25T19:52:05.580Z,44.22
2022-11-25T19:57:05.565Z,37.29
2022-11-25T20:02:05.629Z,35.62
2022-11-25T20:07:05.576Z,30.91
2022-11-25T20:12:09.288Z,28.75
2022-11-25T20:17:05.618Z,25.52
2022-11-25T20:22:05.587Z,26.4
2022-11-25T20:27:05.583Z,25.47
2022-11-25T20:32:05.667Z,26.6
2022-11-25T20:37:05.593Z,27.7
2022-11-25T20:42:05.594Z,27.8
2022-11-25T20:47:05.612Z,28.57
2022-11-25T20:52:05.624Z,29.7
2022-11-25T20:57:05.595Z,29.56
2022-11-25T21:02:05.652Z,32.38
2022-11-25T21:07:05.619Z,35.57
2022-11-25T21:12:05.607Z,39.33
2022-11-25T21:17:05.637Z,38.6
2022-11-25T21:22:05.626Z,36.91
2022-11-25T21:27:07.749Z,36.91
2022-11-25T21:32:05.616Z,41.86
2022-11-25T21:37:05.617Z,44
2022-11-25T21:42:05.610Z,44.81
2022-11-25T21:47:05.609Z,50.08
2022-11-25T21:52:05.604Z,54.66
2022-11-25T21:57:05.608Z,55.73
2022-11-25T22:02:05.613Z,53.22
2022-11-25T22:07:05.626Z,51.34
2022-11-25T22:12:05.621Z,50.82
2022-11-25T22:17:05.628Z,49.8
2022-11-25T22:22:05.624Z,50.03
2022-11-25T22:27:05.626Z,45.21
2022-11-25T22:32:09.761Z,46.05
2022-11-25T22:37:05.662Z,46.4
2022-11-25T22:42:05.668Z,45.41
2022-11-25T22:47:05.634Z,48.98
2022-11-25T22:52:05.653Z,65.18
2022-11-25T22:57:05.649Z,59.23
2022-11-25T23:02:05.655Z,56.13
2022-11-25T23:07:05.644Z,52.88
2022-11-25T23:12:05.653Z,52.01
2022-11-25T23:17:05.674Z,56.83
2022-11-25T23:22:05.647Z,51.85
2022-11-25T23:28:09.426Z,51.44
2022-11-25T23:32:05.747Z,53.15
2022-11-25T23:37:05.676Z,52.16
2022-11-25T23:42:05.657Z,48.52
2022-11-25T23:47:05.654Z,50.06
2022-11-25T23:52:07.954Z,52.23
2022-11-25T23:57:05.696Z,50.13
